Time;durP1;ratioP1;P1;durP2;ratioP2;P2;SDS_P1;SDS_P2;PMS_P1;PMS_P2;Temp;Humidity;BMP_temperature;BMP_pressure;BME280_temperature;BME280_humidity;BME280_pressure;Samples;Min_cycle;Max_cycle;Signal;HPM_P1;HPM_P2
2022/06/07 15:48:11;;;;;;;;;;;;;;;30.81;12.31;99560.81;5041472;28;19931;-77
2022/06/07 15:50:43;;;;;;;;;;;;;;;30.14;12.35;99561.81;5042891;28;19964;-78
2022/06/07 15:53:09;;;;;;;;;;;;;;;29.46;12.93;99566.66;5042892;28;20403;-78
2022/06/07 15:55:35;;;;;;;;;;;;;;;28.94;13.25;99568.06;5027284;28;20283;-78
2022/06/07 16:00:46;;;;;;;;;;;;;;;28.89;13.88;99567.66;5038115;28;20698;-77
2022/06/07 16:03:14;;;;;;;;;;;;;;;28.47;14.15;99561.69;5055415;28;19939;-76
2022/06/07 16:05:40;;;;;;;;;;;;;;;27.92;14.72;99566.47;5045895;28;20342;-77
2022/06/07 16:08:07;;;;;;;;;;;;;;;27.53;15.10;99566.00;5060775;28;20104;-77
2022/06/07 16:10:33;;;;;;;;;;;;;;;27.42;15.22;99577.19;5060395;28;20508;-77
2022/06/07 16:13:00;;;;;;;;;;;;;;;27.12;15.86;99575.44;5064060;28;20374;-76
2022/06/07 16:15:27;;;;;;;;;;;;;;;26.86;16.07;99573.72;5031370;28;20647;-77
2022/06/07 16:17:53;;;;;;;;;;;;;;;26.49;16.32;99578.25;5040564;28;19928;-76
2022/06/07 16:20:23;;;;;;;;;;;;;;;26.14;16.86;99569.13;5057945;28;19929;-77
2022/06/07 16:22:49;;;;;;;;;;;;;;;25.66;17.26;99566.28;5041109;28;19929;-77
2022/06/07 16:25:16;;;;;;;;;;;;;;;24.48;18.41;99568.69;5025984;28;19928;-76
2022/06/07 16:46:14;;;;;;;8.45;2.75;;;;;;;20.61;23.97;99572.28;5090881;27;20907;-76
2022/06/07 16:48:42;;;;;;;14.77;2.88;;;;;;;20.45;23.87;99560.28;5093963;28;20127;-76
2022/06/07 16:51:09;;;;;;;20.20;3.30;;;;;;;20.33;24.38;99570.22;5051349;28;20328;-73
2022/06/07 16:53:35;;;;;;;18.27;3.05;;;;;;;20.21;24.95;99565.47;5068770;28;20056;-73
2022/06/07 16:56:05;;;;;;;16.47;2.63;;;;;;;20.05;25.13;99553.44;5033289;28;20505;-73
2022/06/07 16:58:35;;;;;;;13.50;2.28;;;;;;;19.95;25.47;99565.78;5054238;28;20076;-73
2022/06/07 17:15:27;;;;;;;31.55;4.65;;;;;;;19.35;26.81;99568.81;5102253;27;20477;-76
2022/06/07 17:17:53;;;;;;;22.33;3.17;;;;;;;19.27;26.81;99564.97;5098164;27;20044;-72
2022/06/07 17:20:20;;;;;;;26.85;3.38;;;;;;;19.21;27.32;99564.34;5095296;28;20083;-72
2022/06/07 17:22:46;;;;;;;29.08;3.83;;;;;;;19.12;27.21;99564.44;5107153;28;20752;-76
2022/06/07 17:25:12;;;;;;;32.10;3.73;;;;;;;19.03;27.40;99569.22;5130981;27;20047;-75
2022/06/07 17:27:39;;;;;;;41.78;3.97;;;;;;;18.96;27.49;99571.69;5110940;28;20043;-72
2022/06/07 17:30:07;;;;;;;31.92;3.88;;;;;;;18.90;27.93;99557.25;4758167;28;10000252;-75
2022/06/07 17:32:39;;;;;;;27.83;3.90;;;;;;;18.89;27.88;99568.66;5314042;22;20474;-71
2022/06/07 17:35:07;;;;;;;20.27;3.25;;;;;;;18.82;28.42;99563.66;5101264;28;20389;-75
2022/06/07 17:37:33;;;;;;;24.08;3.95;;;;;;;18.70;28.12;99559.66;5101221;28;20044;-75
2022/06/07 17:40:03;;;;;;;21.27;3.45;;;;;;;18.68;28.52;99567.50;5079153;28;20348;-75
2022/06/07 17:42:29;;;;;;;24.50;4.07;;;;;;;18.63;28.39;99573.22;5079297;28;20044;-71
2022/06/07 17:44:57;;;;;;;18.85;3.75;;;;;;;18.58;28.54;99564.31;5099841;28;20113;-71
2022/06/07 17:47:27;;;;;;;26.00;3.60;;;;;;;18.50;28.72;99571.50;5056881;28;20040;-72
2022/06/07 17:49:55;;;;;;;26.38;3.65;;;;;;;18.34;29.17;99560.19;5066735;28;20430;-71
2022/06/07 17:52:22;;;;;;;42.60;13.00;;;;;;;18.37;29.22;99576.94;5059213;28;20143;-74
2022/06/07 17:54:48;;;;;;;12.30;3.28;;;;;;;18.32;29.11;99581.84;5056652;28;20133;-74
2022/06/07 17:57:14;;;;;;;14.47;3.40;;;;;;;18.24;29.12;99581.53;5073684;28;20040;-74
2022/06/07 17:59:43;;;;;;;27.80;3.13;;;;;;;18.17;29.52;99580.44;5075790;28;20102;-74
2022/06/07 18:02:10;;;;;;;13.80;3.25;;;;;;;18.03;29.82;99575.13;5059724;28;20662;-70
2022/06/07 18:04:36;;;;;;;;;;;;;;;17.99;29.93;99578.53;5062807;28;20050;-70
2022/06/07 18:07:04;;;;;;;20.02;3.58;;;;;;;17.93;30.04;99570.72;5025482;28;20299;-70
2022/06/07 18:09:30;;;;;;;37.47;3.70;;;;;;;17.86;30.43;99580.34;5077433;28;20044;-74
2022/06/07 18:11:57;;;;;;;25.77;11.57;;;;;;;17.78;30.49;99581.19;5076482;28;20067;-75
2022/06/07 18:14:23;;;;;;;17.73;3.05;;;;;;;17.69;30.39;99581.19;5056697;28;20044;-75
2022/06/07 18:16:50;;;;;;;18.73;3.50;;;;;;;17.58;30.90;99580.75;5030316;28;20040;-75
2022/06/07 18:19:16;;;;;;;19.77;3.75;;;;;;;17.55;30.67;99581.38;5063837;28;20148;-75
2022/06/07 18:21:43;;;;;;;20.73;3.27;;;;;;;17.52;31.14;99581.22;5062727;28;20051;-74
2022/06/07 18:24:10;;;;;;;20.30;3.80;;;;;;;17.44;31.19;99580.91;5064286;28;20151;-74
2022/06/07 18:26:38;;;;;;;17.98;3.67;;;;;;;17.38;31.50;99573.94;5072107;28;20056;-75
2022/06/07 18:29:06;;;;;;;18.45;3.30;;;;;;;17.40;31.89;99584.63;5079344;28;20144;-75
2022/06/07 18:31:35;;;;;;;21.65;4.40;;;;;;;17.39;31.89;99577.50;5069083;28;20327;-75
2022/06/07 18:34:02;;;;;;;16.70;3.55;;;;;;;17.37;31.94;99586.13;5045896;28;20052;-75
2022/06/07 18:36:29;;;;;;;18.67;4.28;;;;;;;17.29;32.36;99578.63;5064325;28;20106;-75
2022/06/07 18:38:55;;;;;;;23.63;4.53;;;;;;;17.17;32.23;99571.00;5030493;28;20068;-75
2022/06/07 18:41:24;;;;;;;19.02;4.90;;;;;;;17.18;32.37;99578.16;5030672;28;20041;-75
2022/06/07 18:43:50;;;;;;;36.63;5.45;;;;;;;17.06;32.46;99581.56;5045804;28;20075;-74
2022/06/07 18:46:20;;;;;;;33.92;5.25;;;;;;;16.97;32.97;99570.50;5064606;28;20059;-75
2022/06/07 18:48:47;;;;;;;33.90;6.45;;;;;;;16.98;33.24;99576.81;5025411;28;20056;-74
2022/06/07 18:51:15;;;;;;;32.10;6.05;;;;;;;16.93;33.08;99580.53;5044811;28;20045;-75
2022/06/07 18:53:43;;;;;;;26.23;7.90;;;;;;;16.86;33.84;99575.50;5037284;28;20044;-75
2022/06/07 18:56:11;;;;;;;40.08;6.85;;;;;;;16.85;33.44;99578.59;5044141;28;20415;-75
2022/06/07 18:58:40;;;;;;;39.90;6.38;;;;;;;16.80;33.75;99582.31;5039259;28;20041;-74
2022/06/07 19:01:23;;;;;;;38.55;6.43;;;;;;;16.76;33.58;99575.81;5044963;28;20045;-74
2022/06/07 19:03:50;;;;;;;32.00;5.47;;;;;;;16.73;33.92;99579.22;5046287;28;20052;-74
2022/06/07 19:06:17;;;;;;;48.05;5.47;;;;;;;16.68;33.81;99579.34;5043054;28;20131;-74
2022/06/07 19:08:46;;;;;;;27.08;5.35;;;;;;;16.59;34.18;99569.13;5058184;28;20040;-75
2022/06/07 19:11:16;;;;;;;41.88;5.30;;;;;;;16.59;34.44;99580.16;5064876;28;20569;-75
2022/06/07 19:13:45;;;;;;;38.10;4.93;;;;;;;16.53;34.69;99580.63;5047165;28;20052;-75
2022/06/07 19:16:12;;;;;;;30.45;6.57;;;;;;;16.43;34.99;99577.03;5047478;28;20044;-75
2022/06/07 19:18:38;;;;;;;41.23;5.60;;;;;;;16.36;35.14;99565.66;5046750;28;20526;-75
2022/06/07 19:21:05;;;;;;;30.75;5.78;;;;;;;16.28;35.81;99564.50;5064343;28;20491;-75
2022/06/07 19:23:31;;;;;;;34.22;6.72;;;;;;;16.24;36.11;99568.19;5065019;28;20063;-75
2022/06/07 19:26:00;;;;;;;48.90;8.43;;;;;;;16.18;36.09;99564.75;5031785;28;20067;-75
2022/06/07 19:28:28;;;;;;;51.83;13.63;;;;;;;16.16;36.03;99572.53;5047732;28;20060;-75
2022/06/07 19:30:56;;;;;;;50.25;9.35;;;;;;;16.19;35.88;99568.34;5048445;28;20087;-75
2022/06/07 19:33:23;;;;;;;47.42;7.97;;;;;;;16.17;36.17;99563.13;5065913;28;20082;-75
2022/06/07 19:35:51;;;;;;;50.40;7.10;;;;;;;16.12;36.93;99561.31;5066161;28;20091;-75
2022/06/07 19:38:20;;;;;;;43.40;8.45;;;;;;;16.06;37.03;99562.63;5066768;28;20604;-75
2022/06/07 19:40:47;;;;;;;51.58;9.85;;;;;;;15.95;37.58;99570.34;5033916;28;20098;-74
2022/06/07 19:43:16;;;;;;;47.13;8.52;;;;;;;15.84;38.01;99564.28;5066371;28;20055;-74
2022/06/07 19:45:42;;;;;;;66.22;8.65;;;;;;;15.83;37.38;99565.38;5049950;28;20135;-75
2022/06/07 19:48:10;;;;;;;69.90;8.30;;;;;;;15.78;37.82;99560.00;5066241;28;20052;-75
2022/06/07 19:50:39;;;;;;;55.75;9.20;;;;;;;15.70;38.48;99550.56;5048876;28;20502;-75
2022/06/07 19:53:07;;;;;;;59.38;10.50;;;;;;;15.73;38.10;99549.91;5065527;28;20334;-75
2022/06/07 19:55:33;;;;;;;54.17;7.40;;;;;;;15.80;38.13;99557.75;5066065;28;20048;-75
2022/06/07 19:58:00;;;;;;;76.00;10.05;;;;;;;15.79;38.59;99553.34;5064564;28;20048;-75
2022/06/07 20:00:28;;;;;;;72.93;12.35;;;;;;;15.78;38.34;99546.22;5041092;28;20076;-75
2022/06/07 20:02:58;;;;;;;106.85;13.73;;;;;;;15.80;38.18;99551.44;5043826;28;20055;-75
2022/06/07 20:05:26;;;;;;;72.90;10.00;;;;;;;15.80;38.64;99546.72;4694917;28;10000279;-75
2022/06/07 20:07:52;;;;;;;83.13;12.30;;;;;;;15.77;38.67;99544.59;5042203;28;20063;-75
2022/06/07 20:10:20;;;;;;;71.65;10.27;;;;;;;15.79;38.66;99549.81;5030822;28;20041;-70
2022/06/07 20:12:46;;;;;;;41.33;6.40;;;;;;;15.71;38.63;99545.88;5041658;28;20040;-71
2022/06/07 20:15:12;;;;;;;46.67;7.57;;;;;;;15.67;39.26;99545.69;5050588;28;20423;-70
2022/06/07 20:17:40;;;;;;;52.63;7.60;;;;;;;15.63;39.48;99546.63;5063855;28;20044;-70
2022/06/07 20:20:07;;;;;;;;;;;;;;;15.65;39.27;99549.88;5044587;28;20439;-70
2022/06/07 20:22:37;;;;;;;59.08;8.48;;;;;;;15.63;39.46;99536.44;5064297;28;19924;-70
2022/06/07 20:25:06;;;;;;;29.58;5.47;;;;;;;15.59;39.25;99540.91;5047207;28;20044;-70
2022/06/07 20:27:32;;;;;;;29.13;5.90;;;;;;;15.54;39.12;99541.88;5064004;28;20047;-70
2022/06/07 20:29:59;;;;;;;58.70;7.15;;;;;;;15.50;38.83;99535.34;5045484;28;20040;-70
2022/06/07 20:32:25;;;;;;;26.17;7.43;;;;;;;15.59;38.61;99538.16;5059947;28;20197;-70
2022/06/07 20:34:51;;;;;;;34.97;7.15;;;;;;;15.70;37.96;99541.50;5044876;28;20758;-70
2022/06/07 20:37:19;;;;;;;37.45;8.38;;;;;;;15.70;37.94;99542.28;5042513;28;20043;-70
2022/06/07 20:39:46;;;;;;;;;;;;;;;15.68;38.12;99540.97;5043573;28;20519;-74
2022/06/07 20:42:14;;;;;;;40.55;7.85;;;;;;;15.59;38.67;99539.00;5037948;28;20498;-70
2022/06/07 20:44:41;;;;;;;32.17;6.78;;;;;;;15.58;38.85;99536.53;5022236;28;20098;-74
2022/06/07 20:47:10;;;;;;;34.50;7.47;;;;;;;15.54;38.92;99530.88;5056551;28;20129;-74
2022/06/07 20:49:37;;;;;;;39.03;7.05;;;;;;;15.55;39.01;99528.91;5059740;28;20711;-70
2022/06/07 20:52:07;;;;;;;39.53;7.60;;;;;;;15.51;39.39;99534.22;5024061;28;20714;-70
2022/06/07 20:54:33;;;;;;;37.17;6.82;;;;;;;15.54;38.79;99530.88;5064925;28;20526;-70
2022/06/07 20:57:01;;;;;;;49.28;8.30;;;;;;;15.57;39.16;99537.66;5047039;28;20045;-70
2022/06/07 20:59:28;;;;;;;47.88;8.13;;;;;;;15.45;39.37;99525.31;5027522;28;20045;-70
2022/06/07 21:01:54;;;;;;;35.00;6.50;;;;;;;15.50;39.54;99531.81;5045322;28;20044;-70
2022/06/07 21:04:21;;;;;;;37.40;7.47;;;;;;;15.44;39.91;99531.13;5044715;28;20071;-73
2022/06/07 21:06:47;;;;;;;46.10;7.88;;;;;;;15.26;40.68;99519.97;5026753;28;20118;-74
2022/06/07 21:09:13;;;;;;;57.15;7.60;;;;;;;15.31;40.38;99527.31;5061029;28;20045;-73
2022/06/07 21:11:40;;;;;;;45.53;9.18;;;;;;;15.35;40.54;99527.47;5063145;28;20123;-74
2022/06/07 21:14:08;;;;;;;60.22;9.30;;;;;;;15.33;40.81;99527.81;5059200;28;20045;-74
2022/06/07 21:16:34;;;;;;;61.30;9.48;;;;;;;15.31;40.86;99527.31;5064246;28;20067;-73
2022/06/07 21:19:00;;;;;;;40.38;9.05;;;;;;;15.25;41.24;99532.13;5055272;28;20048;-73
2022/06/07 21:21:26;;;;;;;48.67;8.25;;;;;;;15.15;41.43;99527.69;5027061;28;20053;-73
2022/06/07 21:23:53;;;;;;;41.75;8.88;;;;;;;15.07;41.56;99544.94;5041603;28;20148;-73
2022/06/07 21:26:19;;;;;;;61.72;9.50;;;;;;;15.04;41.92;99540.06;5062300;28;20405;-73
2022/06/07 21:28:45;;;;;;;58.03;9.43;;;;;;;15.04;41.78;99531.78;5042616;28;20655;-73
2022/06/07 21:31:13;;;;;;;49.00;9.10;;;;;;;14.97;41.98;99525.91;5046672;28;20090;-73
2022/06/07 21:33:42;;;;;;;61.58;8.48;;;;;;;14.98;41.94;99527.53;5042165;28;20064;-73
2022/06/07 21:36:09;;;;;;;51.75;9.48;;;;;;;14.98;42.14;99524.75;5039085;28;20048;-73
2022/06/07 21:38:36;;;;;;;55.30;9.57;;;;;;;15.01;42.43;99535.19;5038541;28;20410;-73
2022/06/07 21:41:03;;;;;;;57.65;8.82;;;;;;;14.95;42.46;99530.91;5040540;28;20075;-74
2022/06/07 21:43:30;;;;;;;46.25;9.60;;;;;;;14.92;42.67;99534.28;5022952;28;20072;-74
2022/06/07 21:45:56;;;;;;;64.18;9.90;;;;;;;14.98;42.51;99533.84;5041102;28;20079;-73
2022/06/07 21:48:25;;;;;;;54.50;8.98;;;;;;;14.97;42.13;99532.22;5039139;28;20139;-74
2022/06/07 21:50:53;;;;;;;49.47;8.98;;;;;;;14.99;41.97;99527.22;5043369;28;20144;-73
2022/06/07 21:53:19;;;;;;;45.80;9.23;;;;;;;15.01;42.15;99526.91;5047739;28;20247;-73
2022/06/07 21:55:46;;;;;;;47.20;10.15;;;;;;;14.95;42.48;99528.16;5054129;28;20044;-73
2022/06/07 21:58:14;;;;;;;69.57;14.68;;;;;;;14.86;43.73;99528.91;5030070;28;20139;-73
2022/06/07 22:00:41;;;;;;;;;;;;;;;14.77;43.99;99527.19;5039640;28;20048;-73
2022/06/07 22:03:08;;;;;;;59.42;11.38;;;;;;;14.68;43.87;99527.88;5044453;28;20019;-73
2022/06/07 22:05:38;;;;;;;44.87;10.17;;;;;;;14.56;44.25;99519.34;5044909;28;20555;-73
2022/06/07 22:08:06;;;;;;;48.03;9.50;;;;;;;14.52;43.98;99530.16;5026595;28;20307;-73
2022/06/07 22:10:32;;;;;;;43.83;9.60;;;;;;;14.47;44.18;99527.50;5046809;28;20048;-74
2022/06/07 22:12:59;;;;;;;65.28;10.65;;;;;;;14.45;44.55;99533.34;5058167;28;20052;-70
2022/06/07 22:15:28;;;;;;;59.38;12.40;;;;;;;14.41;44.83;99526.00;5063983;28;20454;-70
2022/06/07 22:17:54;;;;;;;54.50;12.50;;;;;;;14.38;45.21;99526.63;5062380;28;20458;-69
2022/06/07 22:20:21;;;;;;;55.33;15.23;;;;;;;14.35;45.27;99522.53;5043212;28;20049;-69
2022/06/07 22:22:49;;;;;;;53.88;14.57;;;;;;;14.32;45.30;99525.91;5041195;28;20114;-70
2022/06/07 22:25:16;;;;;;;62.28;12.10;;;;;;;14.29;45.70;99526.53;5042897;28;20525;-69
2022/06/07 22:27:42;;;;;;;44.67;11.43;;;;;;;14.24;45.69;99532.94;5044398;28;20140;-70
2022/06/07 22:30:12;;;;;;;43.07;11.17;;;;;;;14.19;46.25;99522.03;5043205;28;20060;-70
2022/06/07 22:32:39;;;;;;;42.53;11.27;;;;;;;14.17;46.44;99527.84;5049292;28;20642;-73
2022/06/07 22:35:08;;;;;;;38.33;10.48;;;;;;;14.03;46.23;99521.53;5049534;28;20148;-73
2022/06/07 22:37:34;;;;;;;47.75;11.07;;;;;;;14.15;46.42;99538.34;5066983;28;20098;-73
2022/06/07 22:40:03;;;;;;;48.53;8.45;;;;;;;14.14;46.34;99533.13;5066289;28;20048;-73
2022/06/07 22:42:30;;;;;;;36.33;8.75;;;;;;;14.26;45.37;99532.63;5085821;28;20072;-73
2022/06/07 22:44:57;;;;;;;51.10;9.23;;;;;;;14.37;45.10;99533.25;5046110;28;20517;-74
2022/06/07 22:47:23;;;;;;;34.42;9.18;;;;;;;14.42;44.99;99530.38;5045201;28;20044;-74
2022/06/07 22:49:49;;;;;;;47.35;9.43;;;;;;;14.44;44.93;99539.13;5066415;28;20049;-73
2022/06/07 22:52:20;;;;;;;58.70;9.32;;;;;;;14.43;44.85;99534.75;5046708;28;20064;-73
2022/06/07 22:54:50;;;;;;;41.33;8.63;;;;;;;14.43;45.02;99537.50;5044778;28;20577;-73
2022/06/07 22:57:22;;;;;;;39.80;9.07;;;;;;;14.38;45.22;99535.66;5043440;28;20055;-70
2022/06/07 22:59:54;;;;;;;49.63;9.73;;;;;;;14.34;45.08;99523.66;5054344;28;20051;-70
2022/06/07 23:02:20;;;;;;;63.38;13.10;;;;;;;14.29;46.21;99532.03;5064592;28;20434;-73
2022/06/07 23:04:52;;;;;;;45.60;10.25;;;;;;;14.26;46.73;99535.38;5059696;28;20053;-73
2022/06/07 23:07:21;;;;;;;40.08;9.75;;;;;;;14.17;47.43;99535.28;5058062;28;20044;-73
2022/06/07 23:09:48;;;;;;;56.75;11.45;;;;;;;14.10;48.05;99538.41;5048772;28;20075;-73
2022/06/07 23:12:14;;;;;;;44.65;11.18;;;;;;;14.00;48.98;99535.88;5065232;28;20068;-72
2022/06/07 23:17:27;;;;;;;42.50;9.57;;;;;;;13.92;49.83;99537.41;5063788;28;20060;-72
2022/06/07 23:19:56;;;;;;;43.55;9.02;;;;;;;13.86;50.65;99542.19;5064112;28;20052;-72
2022/06/07 23:22:27;;;;;;;51.50;9.35;;;;;;;13.77;50.82;99543.19;5047510;28;20041;-73
2022/06/07 23:24:54;;;;;;;45.95;8.60;;;;;;;13.67;50.80;99530.44;5066408;28;20507;-69
2022/06/07 23:27:21;;;;;;;47.67;8.55;;;;;;;13.69;51.29;99533.72;5066242;28;20045;-69
2022/06/07 23:29:49;;;;;;;35.22;10.35;;;;;;;13.73;51.22;99534.72;5048946;28;20044;-69
2022/06/07 23:32:16;;;;;;;41.60;8.68;;;;;;;13.75;51.01;99529.75;5048025;28;20140;-69
2022/06/07 23:34:42;;;;;;;43.83;8.32;;;;;;;13.83;50.22;99533.72;5061700;28;20526;-69
2022/06/07 23:37:11;;;;;;;46.45;8.57;;;;;;;13.96;49.80;99534.84;5046935;28;20189;-69
2022/06/07 23:39:39;;;;;;;46.63;8.80;;;;;;;14.04;49.61;99536.91;5064256;28;20059;-69
2022/06/07 23:42:06;;;;;;;50.63;10.25;;;;;;;14.09;50.14;99536.78;5063880;28;20079;-69
2022/06/07 23:44:33;;;;;;;54.03;9.77;;;;;;;14.08;50.39;99535.16;5063658;28;20044;-69
2022/06/07 23:47:05;;;;;;;44.10;9.27;;;;;;;14.08;50.49;99535.16;5065343;28;20048;-72
2022/06/07 23:49:38;;;;;;;48.22;9.80;;;;;;;14.06;51.12;99534.66;5063553;28;20457;-69
2022/06/07 23:52:09;;;;;;;40.22;8.35;;;;;;;14.05;50.84;99533.03;5047197;28;20147;-70
2022/06/07 23:54:36;;;;;;;40.75;8.75;;;;;;;14.03;49.81;99519.59;5065858;28;20556;-70
2022/06/07 23:57:04;;;;;;;59.72;9.77;;;;;;;14.17;49.51;99535.28;5047417;28;20044;-70
2022/06/07 23:59:35;;;;;;;38.17;8.25;;;;;;;14.13;49.67;99532.34;5061887;28;20075;-70
